Time;durP1;ratioP1;P1;durP2;ratioP2;P2;SDS_P1;SDS_P2;PMS_P1;PMS_P2;Temp;Humidity;BMP_temperature;BMP_pressure;BME280_temperature;BME280_humidity;BME280_pressure;Samples;Min_cycle;Max_cycle;Signal;HPM_P1;HPM_P2
2022/11/29 00:01:29;;;;;;;9.65;2.20;;;8.30;99.90;;;;;;4972705;28;20082;-79
2022/11/29 00:03:57;;;;;;;7.53;2.42;;;8.30;99.90;;;;;;4974076;28;20055;-78
2022/11/29 00:06:30;;;;;;;5.65;2.25;;;8.30;99.90;;;;;;4978942;28;20074;-78
2022/11/29 00:08:59;;;;;;;9.88;2.67;;;8.20;99.90;;;;;;4977645;28;20051;-79
2022/11/29 00:14:16;;;;;;;9.90;2.55;;;8.30;99.90;;;;;;4964432;29;20103;-77
2022/11/29 00:16:43;;;;;;;7.78;2.30;;;8.40;99.90;;;;;;4963595;28;20094;-80
2022/11/29 00:19:11;;;;;;;7.05;2.30;;;8.40;99.90;;;;;;4964333;29;20059;-79
2022/11/29 00:21:38;;;;;;;10.68;2.15;;;8.40;99.90;;;;;;4966409;28;20106;-78
2022/11/29 00:24:05;;;;;;;8.65;2.22;;;8.40;99.90;;;;;;4981521;28;20469;-78
2022/11/29 00:26:32;;;;;;;11.98;2.35;;;8.40;99.90;;;;;;4978591;28;20146;-79
2022/11/29 00:28:59;;;;;;;9.85;2.70;;;8.40;99.90;;;;;;4978682;28;20058;-79
2022/11/29 00:31:29;;;;;;;8.43;2.20;;;8.40;99.90;;;;;;4959154;28;20106;-79
2022/11/29 00:33:57;;;;;;;7.30;2.35;;;8.40;99.90;;;;;;4977738;28;20415;-79
2022/11/29 00:36:25;;;;;;;8.98;2.55;;;8.40;99.90;;;;;;4975240;28;20133;-78
2022/11/29 00:38:52;;;;;;;12.23;2.58;;;8.50;99.90;;;;;;4975989;28;20051;-78
2022/11/29 00:41:19;;;;;;;7.78;2.40;;;8.50;99.90;;;;;;4977706;28;20086;-78
2022/11/29 00:43:46;;;;;;;8.52;2.40;;;8.50;99.90;;;;;;4976324;28;20051;-79
2022/11/29 00:46:12;;;;;;;8.68;2.42;;;8.50;99.90;;;;;;4977322;28;20061;-78
2022/11/29 00:48:39;;;;;;;12.82;2.90;;;8.50;99.90;;;;;;4975670;28;20051;-78
2022/11/29 00:51:07;;;;;;;9.10;2.75;;;8.50;99.90;;;;;;4975154;28;20079;-78
2022/11/29 00:53:34;;;;;;;8.27;2.92;;;8.50;99.90;;;;;;4977536;28;20047;-79
2022/11/29 00:56:03;;;;;;;8.93;2.15;;;8.60;99.90;;;;;;4976790;28;20048;-78
2022/11/29 00:58:30;;;;;;;9.73;2.67;;;8.60;99.90;;;;;;4977418;28;20050;-79
2022/11/29 01:00:57;;;;;;;7.32;2.72;;;8.60;99.90;;;;;;4975527;28;20047;-78
2022/11/29 01:03:23;;;;;;;10.70;2.60;;;8.50;99.90;;;;;;4978537;28;20047;-78
2022/11/29 01:05:50;;;;;;;6.57;2.10;;;8.60;99.90;;;;;;4976550;28;20053;-79
2022/11/29 01:08:17;;;;;;;3.80;2.00;;;8.60;99.90;;;;;;4975665;28;20047;-79
2022/11/29 01:10:44;;;;;;;6.07;3.13;;;8.60;99.90;;;;;;4977709;28;20057;-79
2022/11/29 01:13:11;;;;;;;10.52;2.75;;;8.60;99.90;;;;;;4977030;28;20417;-79
2022/11/29 01:15:38;;;;;;;5.45;2.13;;;8.60;99.90;;;;;;4976086;28;20130;-80
2022/11/29 01:18:05;;;;;;;7.25;2.33;;;8.60;99.90;;;;;;4981025;28;20050;-79
2022/11/29 01:20:31;;;;;;;6.75;2.30;;;8.60;99.90;;;;;;4978142;28;20055;-79
2022/11/29 01:22:58;;;;;;;7.03;1.80;;;8.60;99.90;;;;;;4976755;28;20107;-79
2022/11/29 01:25:25;;;;;;;6.05;2.55;;;8.60;99.90;;;;;;4976256;28;20058;-79
2022/11/29 01:27:51;;;;;;;5.60;2.28;;;8.60;99.90;;;;;;4977083;28;20102;-79
2022/11/29 01:30:18;;;;;;;9.27;2.10;;;8.60;99.90;;;;;;4974533;28;20043;-79
2022/11/29 01:32:45;;;;;;;12.80;2.10;;;8.60;99.90;;;;;;4975361;28;20078;-79
2022/11/29 01:35:11;;;;;;;11.40;2.42;;;8.60;99.90;;;;;;4973015;28;20051;-78
2022/11/29 01:37:38;;;;;;;15.65;2.90;;;8.60;99.90;;;;;;4973595;28;20047;-80
2022/11/29 01:40:05;;;;;;;9.13;2.85;;;8.60;99.90;;;;;;4977285;28;20055;-79
2022/11/29 01:42:32;;;;;;;8.68;2.40;;;8.60;99.90;;;;;;4975514;28;20051;-77
2022/11/29 01:45:04;;;;;;;7.88;2.45;;;8.60;99.90;;;;;;4975203;28;20130;-79
2022/11/29 01:47:31;;;;;;;10.65;2.47;;;8.60;99.90;;;;;;4976176;28;20051;-78
2022/11/29 01:49:58;;;;;;;7.28;2.80;;;8.60;99.90;;;;;;4976521;28;20591;-79
2022/11/29 01:52:29;;;;;;;9.32;2.97;;;8.60;99.90;;;;;;4977342;28;20051;-79
2022/11/29 01:55:00;;;;;;;11.05;3.47;;;8.60;99.90;;;;;;4978060;28;20420;-79
2022/11/29 01:57:28;;;;;;;9.82;2.72;;;8.60;99.90;;;;;;4976168;28;20051;-79
2022/11/29 02:00:00;;;;;;;10.05;2.85;;;8.60;99.90;;;;;;4979836;28;20062;-79
2022/11/29 02:02:35;;;;;;;8.43;2.60;;;8.60;99.90;;;;;;4969901;29;20422;-79
2022/11/29 02:05:03;;;;;;;9.73;3.22;;;8.50;99.90;;;;;;4973461;29;20532;-79
2022/11/29 02:07:30;;;;;;;8.98;3.00;;;8.60;99.90;;;;;;4969920;28;20110;-80
2022/11/29 02:09:57;;;;;;;13.85;3.83;;;8.60;99.90;;;;;;4974240;28;20047;-79
2022/11/29 02:12:58;;;;;;;10.38;3.28;;;8.60;99.90;;;;;;4983635;28;20042;-80
2022/11/29 02:15:48;;;;;;;10.80;3.25;;;8.60;99.90;;;;;;4975311;28;20078;-79
2022/11/29 02:18:59;;;;;;;8.13;3.45;;;8.60;99.90;;;;;;4973184;28;20055;-79
2022/11/29 02:21:34;;;;;;;8.70;2.60;;;8.60;99.90;;;;;;4976020;28;20142;-79
2022/11/29 02:24:04;;;;;;;10.32;2.90;;;8.60;99.90;;;;;;4973249;28;20047;-78
2022/11/29 02:26:51;;;;;;;6.38;2.55;;;8.60;99.90;;;;;;4976750;28;20074;-79
2022/11/29 02:29:23;;;;;;;10.75;2.97;;;8.70;99.90;;;;;;4976073;28;20122;-79
2022/11/29 02:32:18;;;;;;;9.18;2.92;;;8.60;99.90;;;;;;4973093;28;20150;-79
2022/11/29 02:34:44;;;;;;;6.97;2.85;;;8.60;99.90;;;;;;4976522;28;20082;-79
2022/11/29 02:37:23;;;;;;;8.25;2.67;;;8.70;99.90;;;;;;4970397;28;20110;-79
2022/11/29 02:40:21;;;;;;;12.13;3.08;;;8.60;99.90;;;;;;4975284;28;20055;-79
2022/11/29 02:43:18;;;;;;;11.02;2.95;;;8.70;99.90;;;;;;4974936;28;20515;-79
2022/11/29 02:45:50;;;;;;;8.50;2.90;;;8.60;99.90;;;;;;4974592;28;20111;-79
2022/11/29 02:48:40;;;;;;;7.10;3.05;;;8.60;99.90;;;;;;4973794;28;20126;-79
2022/11/29 02:51:38;;;;;;;9.80;3.03;;;8.60;99.90;;;;;;4973823;28;20047;-79
2022/11/29 02:54:07;;;;;;;14.02;3.47;;;8.60;99.90;;;;;;4974371;28;20047;-79
2022/11/29 02:56:55;;;;;;;11.20;2.88;;;8.70;99.90;;;;;;4974188;28;20043;-79
2022/11/29 02:59:41;;;;;;;12.35;3.03;;;8.70;99.90;;;;;;4974632;28;20070;-79
2022/11/29 03:02:30;;;;;;;9.63;3.35;;;8.70;99.90;;;;;;4974329;28;20086;-79
2022/11/29 03:05:12;;;;;;;10.27;3.03;;;8.70;99.90;;;;;;4977880;28;20051;-79
2022/11/29 03:08:09;;;;;;;9.38;3.45;;;8.60;99.90;;;;;;4975949;28;20047;-79
2022/11/29 03:11:14;;;;;;;7.30;2.80;;;8.60;99.90;;;;;;4974674;28;20047;-79
2022/11/29 03:14:12;;;;;;;9.40;2.78;;;8.70;99.90;;;;;;4975853;28;20103;-79
2022/11/29 03:16:59;;;;;;;9.52;3.58;;;8.60;99.90;;;;;;4975459;28;20134;-79
2022/11/29 03:19:38;;;;;;;9.90;3.42;;;8.60;99.90;;;;;;4976468;28;20130;-79
2022/11/29 03:22:29;;;;;;;8.97;3.13;;;8.60;99.90;;;;;;4973836;28;20057;-79
2022/11/29 03:25:07;;;;;;;11.80;3.15;;;8.60;99.90;;;;;;4974410;28;20129;-80
2022/11/29 03:27:42;;;;;;;7.60;2.60;;;8.60;99.90;;;;;;4972428;28;20083;-79
2022/11/29 03:30:12;;;;;;;8.48;2.88;;;8.60;99.90;;;;;;4973686;28;20043;-79
2022/11/29 03:33:01;;;;;;;11.48;2.85;;;8.60;99.90;;;;;;4976361;28;20051;-79
2022/11/29 03:35:52;;;;;;;11.52;3.30;;;8.60;99.90;;;;;;4956042;29;20051;-79
2022/11/29 03:38:30;;;;;;;10.38;3.05;;;8.60;99.90;;;;;;4976610;28;20050;-79
2022/11/29 03:41:12;;;;;;;8.98;2.80;;;8.60;99.90;;;;;;4974087;28;20511;-79
2022/11/29 03:43:46;;;;;;;7.35;2.67;;;8.60;99.90;;;;;;4974191;28;20091;-79
2022/11/29 03:46:21;;;;;;;10.73;2.85;;;8.60;99.90;;;;;;4977067;28;20089;-78
2022/11/29 03:48:54;;;;;;;9.27;2.60;;;8.60;99.90;;;;;;4975087;28;20051;-79
2022/11/29 03:51:56;;;;;;;5.60;2.97;;;8.60;99.90;;;;;;4975942;28;20050;-79
2022/11/29 03:54:34;;;;;;;10.15;2.50;;;8.60;99.90;;;;;;4942909;28;20115;-79
2022/11/29 03:57:00;;;;;;;8.00;2.50;;;8.60;99.90;;;;;;4962779;28;20506;-79
2022/11/29 04:00:06;;;;;;;7.47;2.63;;;8.60;99.90;;;;;;4974522;29;20077;-79
2022/11/29 04:02:51;;;;;;;11.40;3.47;;;8.60;99.90;;;;;;4967806;29;20143;-79
2022/11/29 04:05:32;;;;;;;10.82;2.33;;;8.60;99.90;;;;;;4977428;28;20055;-79
2022/11/29 04:08:20;;;;;;;13.27;3.30;;;8.60;99.90;;;;;;4978096;28;20496;-79
2022/11/29 04:11:18;;;;;;;17.08;3.00;;;8.60;99.90;;;;;;4976852;28;20075;-79
2022/11/29 04:13:45;;;;;;;9.32;3.30;;;8.60;99.90;;;;;;4977702;28;20655;-79
2022/11/29 04:16:26;;;;;;;6.53;2.58;;;8.60;99.90;;;;;;4979325;28;20517;-78
2022/11/29 04:19:40;;;;;;;8.05;2.92;;;8.60;99.90;;;;;;4979288;28;20051;-79
2022/11/29 04:22:49;;;;;;;9.85;2.75;;;8.60;99.90;;;;;;4949201;28;20111;-79
2022/11/29 04:25:38;;;;;;;10.73;2.72;;;8.50;99.90;;;;;;4979908;28;20058;-79
2022/11/29 04:28:39;;;;;;;8.73;3.20;;;8.50;99.90;;;;;;4978110;28;20067;-79
2022/11/29 04:31:05;;;;;;;;;;;8.50;99.90;;;;;;4979546;28;20420;-79
2022/11/29 04:34:11;;;;;;;6.28;2.67;;;8.50;99.90;;;;;;4979000;28;20095;-79
2022/11/29 04:37:17;;;;;;;8.20;3.35;;;8.40;99.90;;;;;;4979957;28;20051;-79
2022/11/29 04:40:12;;;;;;;11.68;2.97;;;8.40;99.90;;;;;;4970668;28;20082;-79
2022/11/29 04:43:18;;;;;;;10.85;3.17;;;8.40;99.90;;;;;;4978386;28;20119;-79
2022/11/29 04:45:54;;;;;;;11.73;3.30;;;8.30;99.90;;;;;;4911726;28;20056;-80
2022/11/29 04:48:36;;;;;;;6.32;3.03;;;8.30;99.90;;;;;;4978309;28;20142;-79
2022/11/29 04:51:36;;;;;;;10.90;3.17;;;8.30;99.90;;;;;;4981255;28;20054;-80
2022/11/29 04:54:19;;;;;;;8.13;2.78;;;8.30;99.90;;;;;;4984927;28;20058;-79
2022/11/29 04:56:52;;;;;;;6.95;2.53;;;8.20;99.90;;;;;;4976688;28;20055;-78
2022/11/29 05:00:15;;;;;;;10.10;2.75;;;8.10;99.90;;;;;;4978099;28;20489;-79
2022/11/29 05:02:47;;;;;;;8.43;2.63;;;8.10;99.90;;;;;;4915879;29;20444;-78
2022/11/29 05:05:20;;;;;;;10.00;3.10;;;8.10;99.90;;;;;;4965072;28;20058;-79
2022/11/29 05:08:11;;;;;;;9.48;2.95;;;8.10;99.90;;;;;;4977203;28;20054;-79
2022/11/29 05:10:47;;;;;;;6.50;3.13;;;8.10;99.90;;;;;;4978437;28;20355;-79
2022/11/29 05:13:25;;;;;;;15.75;3.67;;;8.10;99.90;;;;;;4977433;28;20058;-77
2022/11/29 05:16:10;;;;;;;7.47;2.80;;;8.10;99.90;;;;;;4977112;28;20049;-79
2022/11/29 05:19:00;;;;;;;9.75;3.75;;;8.10;99.90;;;;;;4977410;28;20055;-79
2022/11/29 05:21:51;;;;;;;13.85;4.03;;;8.10;99.90;;;;;;4979723;28;20051;-79
2022/11/29 05:24:30;;;;;;;26.35;14.18;;;8.10;99.90;;;;;;4977186;28;20536;-79
2022/11/29 05:27:22;;;;;;;17.52;6.70;;;8.10;99.90;;;;;;4976786;28;20074;-79
2022/11/29 05:30:09;;;;;;;7.95;3.28;;;8.10;99.90;;;;;;4978924;28;20402;-79
2022/11/29 05:33:09;;;;;;;12.65;2.90;;;8.10;99.90;;;;;;4977841;28;20047;-79
2022/11/29 05:36:04;;;;;;;8.00;3.60;;;8.10;99.90;;;;;;4978319;28;20148;-79
2022/11/29 05:38:49;;;;;;;12.35;3.75;;;8.10;99.90;;;;;;4977757;28;20062;-79
2022/11/29 05:41:44;;;;;;;11.55;3.97;;;8.10;99.90;;;;;;4976316;28;20055;-79
2022/11/29 05:44:17;;;;;;;12.63;3.60;;;8.00;99.90;;;;;;4979143;28;20066;-78
2022/11/29 05:46:57;;;;;;;9.85;3.75;;;8.00;99.90;;;;;;4975999;28;20103;-79
2022/11/29 05:49:36;;;;;;;8.23;3.63;;;8.00;99.90;;;;;;4978564;28;20057;-79
2022/11/29 05:52:23;;;;;;;9.20;3.65;;;8.00;99.90;;;;;;4967120;29;20552;-78
2022/11/29 05:55:27;;;;;;;9.85;3.05;;;7.90;99.90;;;;;;4969553;29;20052;-78
2022/11/29 05:58:07;;;;;;;10.13;2.72;;;7.90;99.90;;;;;;4968382;28;20083;-78
2022/11/29 06:00:53;;;;;;;8.00;3.25;;;7.90;99.90;;;;;;4977209;28;20280;-78
2022/11/29 06:03:49;;;;;;;10.32;3.33;;;7.90;99.90;;;;;;4974531;28;20134;-78
2022/11/29 06:06:39;;;;;;;7.13;2.25;;;7.90;99.90;;;;;;4975107;28;20051;-77
2022/11/29 06:09:27;;;;;;;5.97;3.05;;;7.90;99.90;;;;;;4940317;28;20051;-78
2022/11/29 06:12:08;;;;;;;9.55;4.07;;;7.90;99.90;;;;;;4976108;28;20050;-78
2022/11/29 06:14:56;;;;;;;8.38;3.47;;;7.90;99.90;;;;;;4976148;28;20055;-78
2022/11/29 06:17:51;;;;;;;14.40;3.58;;;7.90;99.90;;;;;;4978262;28;20069;-79
2022/11/29 06:20:33;;;;;;;8.07;3.25;;;7.90;99.90;;;;;;4977611;28;20059;-78
2022/11/29 06:23:16;;;;;;;11.98;3.92;;;7.80;99.90;;;;;;4976226;28;20111;-78
2022/11/29 06:25:49;;;;;;;17.52;3.67;;;7.80;99.90;;;;;;4977647;28;20130;-79
2022/11/29 06:28:48;;;;;;;12.88;4.18;;;7.80;99.90;;;;;;4978942;28;20074;-79
2022/11/29 06:31:26;;;;;;;12.63;3.78;;;7.80;99.90;;;;;;4977075;28;20149;-79
2022/11/29 06:34:14;;;;;;;8.25;3.67;;;7.80;99.90;;;;;;4983328;28;20039;-78
2022/11/29 06:36:50;;;;;;;10.23;4.38;;;7.80;99.90;;;;;;4983243;28;20082;-78
2022/11/29 06:39:18;;;;;;;18.70;6.82;;;7.80;99.90;;;;;;4983700;28;20082;-79
2022/11/29 06:41:45;;;;;;;12.32;6.15;;;7.80;99.90;;;;;;4980653;28;20090;-78
2022/11/29 06:44:12;;;;;;;13.25;6.30;;;7.80;99.90;;;;;;4975777;28;20535;-78
2022/11/29 06:46:44;;;;;;;9.85;5.68;;;7.80;99.90;;;;;;4975405;28;20480;-79
2022/11/29 06:49:28;;;;;;;16.08;9.23;;;7.80;99.90;;;;;;4974341;28;20051;-78
2022/11/29 06:52:39;;;;;;;10.45;5.68;;;7.80;99.90;;;;;;4974308;28;20093;-79
2022/11/29 06:55:15;;;;;;;9.52;4.63;;;7.70;99.90;;;;;;4976852;28;20057;-78
2022/11/29 06:57:52;;;;;;;9.35;4.40;;;7.70;99.90;;;;;;4973055;28;20138;-78
2022/11/29 07:00:46;;;;;;;14.15;5.20;;;7.70;99.90;;;;;;4975081;28;20065;-78
2022/11/29 07:03:33;;;;;;;9.35;3.63;;;7.70;99.90;;;;;;4973464;28;20047;-78
2022/11/29 07:06:10;;;;;;;7.85;3.47;;;7.70;99.90;;;;;;4972650;28;20062;-78
2022/11/29 07:08:39;;;;;;;6.65;3.38;;;7.70;99.90;;;;;;4973494;28;20047;-79
2022/11/29 07:11:07;;;;;;;9.65;2.90;;;7.70;99.90;;;;;;4964573;28;20428;-77
2022/11/29 07:13:34;;;;;;;10.38;3.45;;;7.70;99.90;;;;;;4974606;28;20043;-78
2022/11/29 07:16:16;;;;;;;5.97;2.58;;;7.70;99.90;;;;;;4974726;28;20083;-79
2022/11/29 07:18:52;;;;;;;10.10;2.35;;;7.70;99.90;;;;;;4965325;28;20054;-79
2022/11/29 07:21:39;;;;;;;9.18;2.80;;;7.70;99.90;;;;;;4965510;29;20054;-79
2022/11/29 07:24:36;;;;;;;8.93;3.25;;;7.70;99.90;;;;;;4973504;28;20047;-79
2022/11/29 07:27:21;;;;;;;7.15;2.47;;;7.80;99.90;;;;;;4973178;28;20051;-78
2022/11/29 07:29:54;;;;;;;8.05;2.78;;;7.80;99.90;;;;;;4974411;28;20057;-79
2022/11/29 07:33:02;;;;;;;6.95;3.35;;;7.80;99.90;;;;;;4977574;28;20051;-79
2022/11/29 07:35:44;;;;;;;9.40;3.47;;;7.80;99.90;;;;;;4921451;29;20108;-79
2022/11/29 07:38:48;;;;;;;8.98;2.78;;;7.80;99.90;;;;;;4967558;28;20115;-79
2022/11/29 07:41:50;;;;;;;7.72;2.80;;;7.80;99.90;;;;;;4901446;28;20071;-79
2022/11/29 07:44:34;;;;;;;8.05;3.75;;;7.90;99.90;;;;;;4951232;28;20077;-77
2022/11/29 07:47:01;;;;;;;6.28;3.40;;;7.90;99.90;;;;;;4976800;28;20588;-78
2022/11/29 07:49:27;;;;;;;8.75;3.83;;;7.90;99.90;;;;;;4975218;28;20055;-79
2022/11/29 07:51:54;;;;;;;8.50;4.90;;;7.90;99.90;;;;;;4973288;28;20567;-79
2022/11/29 07:54:21;;;;;;;9.82;7.40;;;8.00;99.90;;;;;;4969486;28;20086;-79
2022/11/29 07:56:48;;;;;;;28.05;10.20;;;8.00;99.90;;;;;;4972786;28;20066;-78
2022/11/29 07:59:14;;;;;;;20.55;9.75;;;8.00;99.90;;;;;;4971216;28;20058;-78
2022/11/29 08:01:41;;;;;;;18.27;7.65;;;8.00;99.90;;;;;;4956260;28;20173;-77
2022/11/29 08:04:08;;;;;;;14.55;7.65;;;8.10;99.90;;;;;;4971700;28;20074;-79
2022/11/29 08:06:35;;;;;;;19.85;8.45;;;8.10;99.90;;;;;;4973403;28;20054;-78
2022/11/29 08:09:03;;;;;;;24.00;10.73;;;8.10;99.90;;;;;;4971161;28;20082;-79
2022/11/29 08:11:30;;;;;;;19.02;8.50;;;8.10;99.90;;;;;;4974660;28;20133;-78
2022/11/29 08:13:58;;;;;;;16.27;7.25;;;8.10;99.90;;;;;;4971819;28;20057;-79
2022/11/29 08:16:25;;;;;;;13.63;6.53;;;8.20;99.90;;;;;;4974343;28;20049;-78
2022/11/29 08:18:51;;;;;;;14.55;6.40;;;8.20;99.90;;;;;;4972132;28;20097;-79
2022/11/29 08:21:18;;;;;;;10.52;5.05;;;8.30;99.90;;;;;;4974829;28;20061;-80
2022/11/29 08:23:46;;;;;;;9.85;4.82;;;8.30;99.90;;;;;;4963196;28;20058;-78
2022/11/29 08:26:14;;;;;;;14.85;4.82;;;8.30;99.90;;;;;;4976201;28;20063;-78
2022/11/29 08:28:41;;;;;;;15.13;5.82;;;8.40;99.90;;;;;;4976764;28;20085;-78
2022/11/29 08:31:10;;;;;;;11.32;5.22;;;8.40;99.90;;;;;;4973001;28;20427;-78
2022/11/29 08:33:38;;;;;;;11.02;5.00;;;8.50;99.90;;;;;;4961528;29;20047;-79
2022/11/29 08:36:12;;;;;;;13.88;5.40;;;8.50;99.90;;;;;;4961028;29;20130;-78
2022/11/29 08:38:39;;;;;;;10.27;4.82;;;8.60;99.90;;;;;;4961476;28;20130;-78
2022/11/29 08:41:09;;;;;;;14.43;4.55;;;8.60;99.90;;;;;;4967178;28;20055;-79
2022/11/29 08:43:35;;;;;;;14.52;5.22;;;8.60;99.90;;;;;;4961830;28;20612;-79
2022/11/29 08:46:02;;;;;;;9.10;4.28;;;8.60;99.90;;;;;;4979189;28;20401;-79
2022/11/29 08:48:29;;;;;;;9.98;4.00;;;8.60;99.90;;;;;;4971859;28;20051;-78
2022/11/29 08:50:56;;;;;;;13.50;4.68;;;8.60;99.90;;;;;;4976521;28;20055;-79
2022/11/29 08:53:42;;;;;;;14.18;4.80;;;8.70;99.90;;;;;;4976434;28;20050;-80
2022/11/29 08:56:17;;;;;;;10.60;5.07;;;8.70;99.90;;;;;;4976392;28;20504;-78
2022/11/29 08:59:04;;;;;;;17.05;5.63;;;8.70;99.90;;;;;;4971914;28;20078;-79
2022/11/29 09:01:31;;;;;;;14.45;5.38;;;8.70;99.90;;;;;;4976213;28;20054;-79
2022/11/29 09:04:06;;;;;;;14.48;5.60;;;8.70;99.90;;;;;;4976241;28;20152;-79
2022/11/29 09:06:38;;;;;;;19.45;5.75;;;8.70;99.90;;;;;;4975703;28;20055;-79
2022/11/29 09:09:05;;;;;;;19.10;6.25;;;8.70;99.90;;;;;;4982549;28;20114;-79
2022/11/29 09:11:33;;;;;;;15.07;6.03;;;8.70;99.90;;;;;;4977290;28;20141;-79
2022/11/29 09:14:03;;;;;;;12.02;5.90;;;8.70;99.90;;;;;;4984312;28;20136;-79
2022/11/29 09:16:33;;;;;;;13.23;4.60;;;8.60;99.90;;;;;;4964811;28;20074;-78
2022/11/29 09:19:00;;;;;;;13.80;5.07;;;8.60;99.90;;;;;;4985919;28;20058;-79
2022/11/29 09:21:29;;;;;;;9.52;4.43;;;8.60;99.90;;;;;;4976402;28;20059;-79
2022/11/29 09:23:58;;;;;;;24.98;6.07;;;8.60;99.90;;;;;;4986326;28;20051;-79
2022/11/29 09:26:28;;;;;;;11.30;4.97;;;8.50;99.90;;;;;;4961165;28;20078;-79
2022/11/29 09:29:02;;;;;;;13.95;5.35;;;8.50;99.90;;;;;;4977555;28;20082;-79
2022/11/29 09:31:30;;;;;;;12.10;5.57;;;8.50;99.90;;;;;;4972791;28;20077;-78
2022/11/29 09:33:57;;;;;;;13.93;5.63;;;8.50;99.90;;;;;;4979012;28;20082;-79
2022/11/29 09:36:24;;;;;;;9.27;4.68;;;8.50;99.90;;;;;;4975073;28;20116;-79
2022/11/29 09:38:59;;;;;;;16.90;6.75;;;8.60;99.90;;;;;;4978358;28;20047;-79
2022/11/29 09:41:48;;;;;;;22.65;6.00;;;8.60;99.90;;;;;;4973912;28;20398;-79
2022/11/29 09:44:20;;;;;;;16.05;6.20;;;8.60;99.90;;;;;;4977124;28;20051;-79
2022/11/29 09:47:02;;;;;;;11.15;6.25;;;8.60;99.90;;;;;;4973417;28;20505;-79
2022/11/29 09:49:45;;;;;;;16.73;8.15;;;8.70;99.90;;;;;;4983487;28;20050;-77
2022/11/29 09:52:12;;;;;;;15.15;7.50;;;8.70;99.90;;;;;;4976870;28;20079;-78
2022/11/29 09:55:16;;;;;;;13.65;7.70;;;8.80;99.90;;;;;;4977182;28;20424;-79
2022/11/29 09:57:43;;;;;;;18.30;7.85;;;8.90;99.90;;;;;;4977448;28;20115;-79
2022/11/29 10:00:16;;;;;;;16.58;7.22;;;9.00;99.90;;;;;;4951468;28;20053;-79
2022/11/29 10:02:50;;;;;;;17.27;8.40;;;9.10;99.90;;;;;;4964188;28;20051;-79
2022/11/29 10:05:21;;;;;;;21.23;7.57;;;9.20;99.90;;;;;;4961203;28;20083;-77
2022/11/29 10:08:01;;;;;;;11.20;7.45;;;9.30;99.90;;;;;;4977024;28;20396;-79
2022/11/29 10:10:30;;;;;;;12.13;7.32;;;9.30;99.90;;;;;;4981525;28;20542;-79
2022/11/29 10:13:18;;;;;;;18.77;7.90;;;9.40;99.90;;;;;;4974307;28;20134;-79
2022/11/29 10:15:50;;;;;;;14.90;6.93;;;9.50;99.90;;;;;;4989579;28;20043;-78
2022/11/29 10:18:31;;;;;;;15.90;7.65;;;9.50;99.90;;;;;;4976732;28;20114;-79
2022/11/29 10:21:03;;;;;;;15.38;6.97;;;9.60;99.90;;;;;;4974185;28;20067;-78
2022/11/29 10:23:42;;;;;;;16.90;8.25;;;9.70;99.90;;;;;;4974830;28;20054;-78
2022/11/29 10:26:11;;;;;;;14.50;7.50;;;9.80;99.90;;;;;;4977676;28;20047;-78
2022/11/29 10:28:46;;;;;;;18.13;7.82;;;9.80;99.90;;;;;;4981551;28;20047;-79
2022/11/29 10:31:25;;;;;;;15.15;6.90;;;9.90;99.90;;;;;;4970423;28;20061;-78
2022/11/29 10:33:54;;;;;;;13.40;6.55;;;10.00;99.90;;;;;;4979103;28;20102;-79
2022/11/29 10:36:25;;;;;;;9.85;5.07;;;10.00;99.90;;;;;;4979249;28;20047;-79
2022/11/29 10:38:57;;;;;;;17.10;6.03;;;10.00;99.90;;;;;;4984691;28;20051;-79
2022/11/29 10:41:25;;;;;;;16.23;5.65;;;10.10;99.90;;;;;;4978083;28;20083;-79
2022/11/29 10:43:56;;;;;;;14.52;5.50;;;10.10;99.90;;;;;;4958551;28;20055;-80
2022/11/29 10:46:28;;;;;;;14.25;5.13;;;10.20;99.90;;;;;;4959534;28;20069;-79
2022/11/29 10:48:58;;;;;;;8.40;4.35;;;10.20;99.90;;;;;;4983473;28;20375;-80
2022/11/29 10:51:25;;;;;;;8.27;4.82;;;10.20;99.90;;;;;;4973243;28;20055;-79
2022/11/29 10:53:53;;;;;;;9.60;2.67;;;10.30;99.90;;;;;;4984195;28;20065;-79
2022/11/29 10:56:28;;;;;;;9.13;2.95;;;10.20;99.90;;;;;;4968080;28;20078;-79
2022/11/29 10:59:02;;;;;;;8.50;2.78;;;10.20;99.90;;;;;;4970901;28;20051;-79
2022/11/29 11:01:30;;;;;;;9.82;2.38;;;10.10;99.90;;;;;;4959356;28;20062;-79
2022/11/29 11:03:59;;;;;;;8.38;3.05;;;10.10;99.90;;;;;;4970925;28;20058;-79
2022/11/29 11:06:48;;;;;;;8.18;2.55;;;10.10;99.90;;;;;;4977994;28;20039;-78
2022/11/29 11:09:19;;;;;;;8.32;2.88;;;9.90;99.90;;;;;;4969478;28;20049;-76
2022/11/29 11:11:52;;;;;;;15.05;4.88;;;9.90;99.90;;;;;;4962536;28;20102;-79
2022/11/29 11:14:26;;;;;;;5.35;2.53;;;9.90;99.90;;;;;;4975858;28;20479;-79
2022/11/29 11:16:53;;;;;;;9.65;3.40;;;9.80;99.90;;;;;;4976597;28;20424;-79
2022/11/29 11:19:32;;;;;;;8.70;2.97;;;9.80;99.90;;;;;;4974831;28;20105;-79
2022/11/29 11:22:02;;;;;;;11.75;3.17;;;9.70;99.90;;;;;;4972857;28;20133;-78
2022/11/29 11:24:32;;;;;;;10.10;3.28;;;9.80;99.90;;;;;;4974073;28;20119;-78
2022/11/29 11:27:00;;;;;;;10.80;3.55;;;9.80;99.90;;;;;;4972002;28;20051;-78
2022/11/29 11:29:42;;;;;;;6.28;3.03;;;9.80;99.90;;;;;;4983145;28;20061;-79
2022/11/29 11:32:19;;;;;;;11.55;3.60;;;9.70;99.90;;;;;;4975834;28;20043;-79
2022/11/29 11:34:58;;;;;;;13.02;3.75;;;9.70;99.90;;;;;;4960842;29;20043;-79
2022/11/29 11:37:54;;;;;;;7.47;3.20;;;9.80;99.90;;;;;;4973207;28;20054;-80
2022/11/29 11:40:27;;;;;;;12.65;4.10;;;9.80;99.90;;;;;;4971205;28;20130;-79
2022/11/29 11:42:58;;;;;;;9.55;4.03;;;9.80;99.90;;;;;;4974997;28;20105;-78
2022/11/29 11:45:34;;;;;;;9.63;4.38;;;9.80;99.90;;;;;;4976916;28;20054;-78
2022/11/29 11:48:09;;;;;;;15.15;5.03;;;9.80;99.90;;;;;;4970823;28;20066;-77
2022/11/29 11:50:42;;;;;;;11.82;4.40;;;9.80;99.90;;;;;;4973011;28;20053;-77
2022/11/29 11:53:34;;;;;;;17.13;4.70;;;9.80;99.90;;;;;;4972732;28;20094;-78
2022/11/29 11:56:07;;;;;;;15.25;4.10;;;9.70;99.90;;;;;;4971873;28;20130;-80
2022/11/29 11:58:48;;;;;;;9.50;4.43;;;9.70;99.90;;;;;;4975345;28;20126;-79
2022/11/29 12:01:35;;;;;;;10.45;3.40;;;9.70;99.90;;;;;;4972716;28;20047;-77
2022/11/29 12:04:29;;;;;;;14.57;4.15;;;9.60;99.90;;;;;;4980466;28;20051;-78
2022/11/29 12:07:00;;;;;;;13.55;4.25;;;9.60;99.90;;;;;;4978475;28;20115;-78
2022/11/29 12:09:47;;;;;;;10.57;4.18;;;9.60;99.90;;;;;;4975609;28;20050;-77
2022/11/29 12:12:26;;;;;;;10.38;3.80;;;9.60;99.90;;;;;;4979798;28;20032;-77
2022/11/29 12:14:55;;;;;;;13.03;4.03;;;9.60;99.90;;;;;;4977283;28;20138;-79
2022/11/29 12:17:36;;;;;;;20.60;4.40;;;9.60;99.90;;;;;;4969988;28;20752;-77
2022/11/29 12:20:06;;;;;;;7.28;2.92;;;9.60;99.90;;;;;;4971821;28;20134;-77
2022/11/29 12:22:41;;;;;;;10.82;3.35;;;9.60;99.90;;;;;;4975198;28;20050;-77
2022/11/29 12:25:20;;;;;;;8.32;2.80;;;9.60;99.90;;;;;;4971230;28;20055;-76
2022/11/29 12:27:49;;;;;;;7.22;3.67;;;9.60;99.90;;;;;;4974434;28;20082;-78
2022/11/29 12:30:17;;;;;;;7.32;2.83;;;9.50;99.90;;;;;;4972560;28;20051;-77
2022/11/29 12:33:07;;;;;;;10.18;2.88;;;9.50;99.90;;;;;;4973486;28;20566;-77
2022/11/29 12:35:36;;;;;;;12.77;2.97;;;9.50;99.90;;;;;;4968202;28;20129;-79
2022/11/29 12:38:28;;;;;;;10.30;2.67;;;9.60;99.90;;;;;;4974927;28;20075;-80
2022/11/29 12:41:19;;;;;;;9.45;3.05;;;9.60;99.90;;;;;;4977857;28;20051;-78
2022/11/29 12:44:07;;;;;;;8.30;2.70;;;9.60;99.90;;;;;;4977254;28;20137;-79
2022/11/29 12:46:34;;;;;;;5.90;2.45;;;9.60;99.90;;;;;;4978801;28;20519;-79
2022/11/29 12:49:29;;;;;;;12.13;3.58;;;9.70;99.90;;;;;;4974515;28;20062;-77
2022/11/29 12:52:17;;;;;;;8.57;3.15;;;9.70;99.90;;;;;;4978140;28;20535;-78
2022/11/29 12:55:07;;;;;;;13.05;3.70;;;9.70;99.90;;;;;;4978248;28;20067;-80
2022/11/29 12:57:57;;;;;;;12.32;4.05;;;9.70;99.90;;;;;;4963724;28;20090;-77
2022/11/29 13:00:27;;;;;;;11.65;3.92;;;9.70;99.90;;;;;;4981029;28;20133;-80
2022/11/29 13:03:17;;;;;;;12.63;3.17;;;9.70;99.90;;;;;;4975818;28;20078;-79
2022/11/29 13:06:03;;;;;;;10.10;2.83;;;9.60;99.90;;;;;;4978085;28;20051;-79
2022/11/29 13:08:42;;;;;;;6.75;2.25;;;9.60;99.90;;;;;;4979341;28;20097;-80
2022/11/29 13:11:17;;;;;;;9.88;2.50;;;9.60;99.90;;;;;;4975010;28;20054;-78
2022/11/29 13:14:02;;;;;;;7.63;2.78;;;9.60;99.90;;;;;;4979254;28;20103;-77
2022/11/29 13:16:58;;;;;;;7.07;2.80;;;9.50;99.90;;;;;;4974224;28;20515;-79
2022/11/29 13:19:54;;;;;;;8.98;3.03;;;9.50;99.90;;;;;;4979733;28;20435;-79
2022/11/29 13:23:08;;;;;;;8.70;2.95;;;9.50;99.90;;;;;;4981692;28;20085;-79
2022/11/29 13:25:39;;;;;;;11.00;3.03;;;9.50;99.90;;;;;;4904302;29;20115;-81
2022/11/29 13:28:28;;;;;;;8.93;2.63;;;9.40;99.90;;;;;;4959337;28;20079;-81
2022/11/29 13:31:19;;;;;;;6.40;2.47;;;9.30;99.90;;;;;;4982197;28;20050;-79
2022/11/29 13:33:52;;;;;;;8.73;3.42;;;9.30;99.90;;;;;;4979917;28;20046;-80
2022/11/29 13:36:34;;;;;;;7.43;2.00;;;9.30;99.90;;;;;;4980896;28;20047;-79
2022/11/29 13:39:33;;;;;;;12.52;2.70;;;9.10;99.90;;;;;;4974249;28;20043;-80
2022/11/29 13:42:16;;;;;;;6.20;3.10;;;9.10;99.90;;;;;;4979701;28;20130;-80
2022/11/29 13:45:21;;;;;;;12.15;3.00;;;9.00;99.90;;;;;;4979969;28;20050;-78
2022/11/29 13:47:59;;;;;;;7.45;2.20;;;8.90;99.90;;;;;;4980316;28;20070;-79
2022/11/29 13:50:45;;;;;;;9.98;3.28;;;8.90;99.90;;;;;;4976897;28;20047;-78